IJM612 LOWW-EBBR
Flight info
| Callsign | IJM612 |
|---|---|
| Flight time | 1h 17m |
| Altitude | 34000 |
| Route | MEDIX DCT RENKA/N0475F380 DCT INBED DCT TEKTU DCT TESGA DCT UMUPU T880 BATTY |
| Aircraft | CL60/M-SBDE1E2E3FGHIJ1J4J5J7M3RWXYZ/LB1V1D1 |
Departure
| Time | 2026-05-07 17:41 |
|---|---|
| Airport | Vienna International Airport (LOWW) |
Arrival
| Time | 2026-05-07 18:59 |
|---|---|
| Airport | Brussels Airport (EBBR) |
| Time | Latitude | Longitude | Altitude | Speed | Heading |
|---|---|---|---|---|---|
| 2026-05-07 17:12 | 48.12698 | 16.53606 | 608 ft | 0 kts | 296° |
| 2026-05-07 17:33 | 48.12705 | 16.53562 | 608 ft | 7 kts | 246° |
| 2026-05-07 17:33 | 48.12658 | 16.53570 | 608 ft | 8 kts | 165° |
| 2026-05-07 17:33 | 48.12594 | 16.53532 | 608 ft | 11 kts | 206° |
| 2026-05-07 17:33 | 48.12513 | 16.53500 | 608 ft | 13 kts | 175° |
| 2026-05-07 17:34 | 48.12437 | 16.53507 | 608 ft | 11 kts | 129° |
| 2026-05-07 17:34 | 48.12394 | 16.53634 | 608 ft | 15 kts | 117° |
| 2026-05-07 17:34 | 48.12355 | 16.53751 | 608 ft | 13 kts | 116° |
| 2026-05-07 17:34 | 48.12310 | 16.53891 | 608 ft | 16 kts | 116° |
| 2026-05-07 17:35 | 48.12254 | 16.54062 | 608 ft | 19 kts | 116° |
| 2026-05-07 17:35 | 48.12190 | 16.54258 | 608 ft | 22 kts | 116° |
| 2026-05-07 17:35 | 48.12117 | 16.54484 | 607 ft | 25 kts | 116° |
| 2026-05-07 17:35 | 48.12036 | 16.54732 | 608 ft | 28 kts | 116° |
| 2026-05-07 17:36 | 48.11947 | 16.55007 | 608 ft | 30 kts | 116° |
| 2026-05-07 17:36 | 48.11858 | 16.55278 | 608 ft | 27 kts | 116° |
| 2026-05-07 17:36 | 48.11783 | 16.55513 | 607 ft | 25 kts | 116° |
| 2026-05-07 17:36 | 48.11700 | 16.55767 | 607 ft | 28 kts | 116° |
| 2026-05-07 17:37 | 48.11612 | 16.56036 | 607 ft | 28 kts | 116° |
| 2026-05-07 17:37 | 48.11523 | 16.56310 | 608 ft | 29 kts | 116° |
| 2026-05-07 17:37 | 48.11434 | 16.56583 | 608 ft | 29 kts | 116° |
| 2026-05-07 17:37 | 48.11344 | 16.56858 | 607 ft | 30 kts | 117° |
| 2026-05-07 17:38 | 48.11266 | 16.57100 | 608 ft | 22 kts | 116° |
| 2026-05-07 17:38 | 48.11193 | 16.57321 | 607 ft | 25 kts | 116° |
| 2026-05-07 17:38 | 48.11114 | 16.57564 | 607 ft | 17 kts | 115° |
| 2026-05-07 17:38 | 48.11058 | 16.57648 | 607 ft | 7 kts | 181° |
| 2026-05-07 17:39 | 48.11018 | 16.57627 | 607 ft | 1 kts | 206° |
| 2026-05-07 17:40 | 48.11017 | 16.57626 | 607 ft | 1 kts | 206° |
| 2026-05-07 17:40 | 48.10976 | 16.57596 | 607 ft | 11 kts | 207° |
| 2026-05-07 17:41 | 48.10922 | 16.57513 | 607 ft | 11 kts | 281° |
| 2026-05-07 17:41 | 48.10978 | 16.57334 | 608 ft | 46 kts | 295° |
| 2026-05-07 17:41 | 48.11282 | 16.56408 | 610 ft | 147 kts | 296° |
| 2026-05-07 17:41 | 48.11796 | 16.54924 | 1389 ft | 169 kts | 290° |
| 2026-05-07 17:42 | 48.11924 | 16.53225 | 2443 ft | 180 kts | 266° |
| 2026-05-07 17:42 | 48.11821 | 16.51274 | 3388 ft | 198 kts | 265° |
| 2026-05-07 17:42 | 48.11680 | 16.49168 | 4302 ft | 221 kts | 265° |
| 2026-05-07 17:42 | 48.11503 | 16.46752 | 5205 ft | 250 kts | 261° |
| 2026-05-07 17:43 | 48.11081 | 16.44153 | 6197 ft | 266 kts | 257° |
| 2026-05-07 17:43 | 48.10763 | 16.41455 | 7209 ft | 271 kts | 274° |
| 2026-05-07 17:43 | 48.11137 | 16.38696 | 8267 ft | 276 kts | 288° |
| 2026-05-07 17:43 | 48.11642 | 16.35926 | 9365 ft | 281 kts | 287° |
| 2026-05-07 17:44 | 48.12147 | 16.33102 | 10466 ft | 286 kts | 286° |
| 2026-05-07 17:44 | 48.12658 | 16.30241 | 11593 ft | 293 kts | 285° |
| 2026-05-07 17:44 | 48.13187 | 16.27267 | 12507 ft | 312 kts | 285° |
| 2026-05-07 17:44 | 48.13761 | 16.24034 | 13391 ft | 328 kts | 284° |
| 2026-05-07 17:45 | 48.14351 | 16.20696 | 14268 ft | 340 kts | 284° |
| 2026-05-07 17:45 | 48.14959 | 16.17252 | 15150 ft | 350 kts | 284° |
| 2026-05-07 17:45 | 48.15583 | 16.13699 | 15999 ft | 361 kts | 284° |
| 2026-05-07 17:45 | 48.16228 | 16.10029 | 16847 ft | 369 kts | 284° |
| 2026-05-07 17:46 | 48.16878 | 16.06319 | 17706 ft | 375 kts | 284° |
| 2026-05-07 17:46 | 48.17539 | 16.02536 | 18404 ft | 384 kts | 284° |
| 2026-05-07 17:46 | 48.18221 | 15.98630 | 19166 ft | 390 kts | 283° |
| 2026-05-07 17:46 | 48.18908 | 15.94684 | 19998 ft | 394 kts | 283° |
| 2026-05-07 17:47 | 48.19597 | 15.90717 | 20783 ft | 399 kts | 282° |
| 2026-05-07 17:47 | 48.20295 | 15.86687 | 21497 ft | 405 kts | 282° |
| 2026-05-07 17:47 | 48.21005 | 15.82583 | 22172 ft | 410 kts | 282° |
| 2026-05-07 17:47 | 48.21723 | 15.78419 | 22807 ft | 416 kts | 282° |
| 2026-05-07 17:48 | 48.22441 | 15.74245 | 23444 ft | 422 kts | 281° |
| 2026-05-07 17:48 | 48.23179 | 15.69950 | 24094 ft | 426 kts | 281° |
| 2026-05-07 17:48 | 48.23920 | 15.65621 | 24731 ft | 430 kts | 281° |
| 2026-05-07 17:48 | 48.24663 | 15.61270 | 25393 ft | 433 kts | 281° |
| 2026-05-07 17:49 | 48.25419 | 15.56836 | 26005 ft | 436 kts | 281° |
| 2026-05-07 17:49 | 48.26162 | 15.52463 | 26557 ft | 440 kts | 281° |
| 2026-05-07 17:49 | 48.26923 | 15.47975 | 27104 ft | 444 kts | 280° |
| 2026-05-07 17:49 | 48.27676 | 15.43523 | 27692 ft | 446 kts | 280° |
| 2026-05-07 17:50 | 48.28439 | 15.39000 | 28234 ft | 449 kts | 280° |
| 2026-05-07 17:50 | 48.29212 | 15.34407 | 28746 ft | 453 kts | 279° |
| 2026-05-07 17:50 | 48.29985 | 15.29801 | 29286 ft | 455 kts | 279° |
| 2026-05-07 17:50 | 48.30751 | 15.25230 | 29891 ft | 454 kts | 279° |
| 2026-05-07 17:51 | 48.31513 | 15.20673 | 30533 ft | 451 kts | 279° |
| 2026-05-07 17:51 | 48.32269 | 15.16140 | 31131 ft | 449 kts | 279° |
| 2026-05-07 17:51 | 48.33024 | 15.11604 | 31652 ft | 445 kts | 279° |
| 2026-05-07 17:51 | 48.33767 | 15.07124 | 32133 ft | 440 kts | 279° |
| 2026-05-07 17:52 | 48.34494 | 15.02730 | 32565 ft | 437 kts | 279° |
| 2026-05-07 17:52 | 48.35225 | 14.98294 | 32960 ft | 434 kts | 280° |
| 2026-05-07 17:52 | 48.35942 | 14.93935 | 33331 ft | 432 kts | 280° |
| 2026-05-07 17:52 | 48.36653 | 14.89594 | 33664 ft | 431 kts | 280° |
| 2026-05-07 17:53 | 48.37369 | 14.85218 | 34022 ft | 429 kts | 280° |
| 2026-05-07 17:53 | 48.38075 | 14.80885 | 34408 ft | 428 kts | 280° |
| 2026-05-07 17:53 | 48.38781 | 14.76543 | 34758 ft | 428 kts | 281° |
| 2026-05-07 17:53 | 48.39483 | 14.72219 | 35097 ft | 427 kts | 281° |
| 2026-05-07 17:54 | 48.40179 | 14.67915 | 35429 ft | 427 kts | 281° |
| 2026-05-07 17:54 | 48.40878 | 14.63581 | 35737 ft | 426 kts | 281° |
| 2026-05-07 17:54 | 48.41574 | 14.59259 | 36041 ft | 426 kts | 281° |
| 2026-05-07 17:54 | 48.42269 | 14.54928 | 36322 ft | 426 kts | 281° |
| 2026-05-07 17:55 | 48.42964 | 14.50588 | 36571 ft | 427 kts | 281° |
| 2026-05-07 17:55 | 48.43659 | 14.46235 | 36818 ft | 427 kts | 281° |
| 2026-05-07 17:55 | 48.44360 | 14.41832 | 37050 ft | 427 kts | 281° |
| 2026-05-07 17:55 | 48.45047 | 14.37506 | 37294 ft | 427 kts | 281° |
| 2026-05-07 17:56 | 48.45743 | 14.33114 | 37513 ft | 427 kts | 280° |
| 2026-05-07 17:56 | 48.46426 | 14.28791 | 37713 ft | 428 kts | 280° |
| 2026-05-07 17:56 | 48.47114 | 14.24423 | 37918 ft | 428 kts | 280° |
| 2026-05-07 17:56 | 48.47808 | 14.20006 | 37993 ft | 432 kts | 280° |
| 2026-05-07 17:57 | 48.48971 | 14.12569 | 37999 ft | 440 kts | 280° |
| 2026-05-07 17:57 | 48.50619 | 14.01977 | 37999 ft | 450 kts | 281° |
| 2026-05-07 17:58 | 48.52063 | 13.92647 | 38011 ft | 454 kts | 281° |
| 2026-05-07 17:58 | 48.53491 | 13.83365 | 38020 ft | 454 kts | 281° |
| 2026-05-07 17:59 | 48.54907 | 13.74113 | 38023 ft | 453 kts | 281° |
| 2026-05-07 17:59 | 48.56314 | 13.64865 | 38023 ft | 452 kts | 281° |
| 2026-05-07 18:00 | 48.57704 | 13.55669 | 38022 ft | 452 kts | 281° |
| 2026-05-07 18:00 | 48.59745 | 13.46670 | 38026 ft | 457 kts | 294° |
| 2026-05-07 18:01 | 48.62568 | 13.38078 | 38027 ft | 458 kts | 294° |
| 2026-05-07 18:01 | 48.65385 | 13.29464 | 38030 ft | 458 kts | 293° |
| 2026-05-07 18:02 | 48.69613 | 13.16488 | 38030 ft | 458 kts | 293° |
| 2026-05-07 18:03 | 48.72409 | 13.07868 | 38029 ft | 458 kts | 293° |
| 2026-05-07 18:03 | 48.75202 | 12.99231 | 38029 ft | 458 kts | 294° |
| 2026-05-07 18:04 | 48.78004 | 12.90536 | 38033 ft | 458 kts | 294° |
| 2026-05-07 18:04 | 48.80780 | 12.81892 | 38036 ft | 458 kts | 293° |
| 2026-05-07 18:05 | 48.83563 | 12.73193 | 38029 ft | 459 kts | 294° |
| 2026-05-07 18:05 | 48.86332 | 12.64512 | 38027 ft | 459 kts | 294° |
| 2026-05-07 18:06 | 48.89095 | 12.55817 | 38026 ft | 459 kts | 294° |
| 2026-05-07 18:06 | 48.91874 | 12.47041 | 38027 ft | 460 kts | 294° |
| 2026-05-07 18:07 | 48.94649 | 12.38250 | 38024 ft | 460 kts | 294° |
| 2026-05-07 18:07 | 48.97391 | 12.29529 | 38014 ft | 460 kts | 293° |
| 2026-05-07 18:08 | 49.00152 | 12.20721 | 38004 ft | 460 kts | 293° |
| 2026-05-07 18:08 | 49.02889 | 12.11957 | 38007 ft | 460 kts | 293° |
| 2026-05-07 18:09 | 49.05632 | 12.03144 | 38010 ft | 460 kts | 293° |
| 2026-05-07 18:09 | 49.08346 | 11.94389 | 38014 ft | 460 kts | 293° |
| 2026-05-07 18:10 | 49.11078 | 11.85548 | 38016 ft | 460 kts | 293° |
| 2026-05-07 18:10 | 49.13797 | 11.76716 | 38015 ft | 460 kts | 293° |
| 2026-05-07 18:11 | 49.16518 | 11.67849 | 38011 ft | 461 kts | 293° |
| 2026-05-07 18:11 | 49.19233 | 11.58968 | 38008 ft | 461 kts | 293° |
| 2026-05-07 18:12 | 49.21927 | 11.50120 | 38007 ft | 461 kts | 293° |
| 2026-05-07 18:12 | 49.24625 | 11.41230 | 38010 ft | 460 kts | 293° |
| 2026-05-07 18:13 | 49.27315 | 11.32336 | 38014 ft | 460 kts | 292° |
| 2026-05-07 18:13 | 49.29999 | 11.23426 | 38014 ft | 459 kts | 292° |
| 2026-05-07 18:14 | 49.32650 | 11.14595 | 38029 ft | 459 kts | 293° |
| 2026-05-07 18:14 | 49.35317 | 11.05679 | 38030 ft | 459 kts | 293° |
| 2026-05-07 18:15 | 49.37998 | 10.96830 | 38034 ft | 459 kts | 296° |
| 2026-05-07 18:15 | 49.41679 | 10.88795 | 38036 ft | 463 kts | 308° |
| 2026-05-07 18:16 | 49.45802 | 10.81247 | 38038 ft | 463 kts | 308° |
| 2026-05-07 18:16 | 49.49938 | 10.73642 | 38038 ft | 463 kts | 308° |
| 2026-05-07 18:17 | 49.54073 | 10.66020 | 38030 ft | 463 kts | 308° |
| 2026-05-07 18:17 | 49.58188 | 10.58412 | 38036 ft | 463 kts | 308° |
| 2026-05-07 18:18 | 49.62291 | 10.50805 | 38031 ft | 463 kts | 308° |
| 2026-05-07 18:18 | 49.66413 | 10.43140 | 38027 ft | 463 kts | 308° |
| 2026-05-07 18:19 | 49.70518 | 10.35484 | 38029 ft | 463 kts | 308° |
| 2026-05-07 18:19 | 49.74340 | 10.27502 | 38032 ft | 462 kts | 302° |
| 2026-05-07 18:20 | 49.77909 | 10.19291 | 38039 ft | 462 kts | 302° |
| 2026-05-07 18:20 | 49.81517 | 10.10980 | 38034 ft | 463 kts | 302° |
| 2026-05-07 18:21 | 49.85083 | 10.02746 | 38036 ft | 462 kts | 302° |
| 2026-05-07 18:21 | 49.88670 | 9.94443 | 38038 ft | 462 kts | 302° |
| 2026-05-07 18:22 | 49.92230 | 9.86176 | 38044 ft | 461 kts | 302° |
| 2026-05-07 18:22 | 49.95797 | 9.77871 | 38034 ft | 462 kts | 302° |
| 2026-05-07 18:23 | 49.99359 | 9.69553 | 38024 ft | 462 kts | 302° |
| 2026-05-07 18:23 | 50.02905 | 9.61246 | 38026 ft | 462 kts | 302° |
| 2026-05-07 18:24 | 50.06067 | 9.52626 | 38021 ft | 460 kts | 291° |
| 2026-05-07 18:24 | 50.08397 | 9.43293 | 38031 ft | 460 kts | 290° |
| 2026-05-07 18:25 | 50.10683 | 9.34055 | 38026 ft | 460 kts | 289° |
| 2026-05-07 18:25 | 50.12974 | 9.24758 | 38034 ft | 459 kts | 289° |
| 2026-05-07 18:26 | 50.15262 | 9.15435 | 38039 ft | 459 kts | 289° |
| 2026-05-07 18:26 | 50.17529 | 9.06162 | 38040 ft | 458 kts | 289° |
| 2026-05-07 18:27 | 50.19779 | 8.96918 | 38050 ft | 458 kts | 289° |
| 2026-05-07 18:27 | 50.22032 | 8.87627 | 38046 ft | 458 kts | 289° |
| 2026-05-07 18:28 | 50.24280 | 8.78311 | 38049 ft | 458 kts | 289° |
| 2026-05-07 18:28 | 50.26513 | 8.69022 | 38045 ft | 459 kts | 289° |
| 2026-05-07 18:29 | 50.28747 | 8.59691 | 38036 ft | 458 kts | 289° |
| 2026-05-07 18:29 | 50.30979 | 8.50328 | 38028 ft | 458 kts | 289° |
| 2026-05-07 18:30 | 50.33190 | 8.41008 | 37864 ft | 459 kts | 289° |
| 2026-05-07 18:30 | 50.34301 | 8.36315 | 37619 ft | 454 kts | 289° |
| 2026-05-07 18:30 | 50.35384 | 8.31733 | 37371 ft | 450 kts | 289° |
| 2026-05-07 18:30 | 50.36462 | 8.27158 | 37138 ft | 448 kts | 289° |
| 2026-05-07 18:31 | 50.37537 | 8.22583 | 36900 ft | 446 kts | 289° |
| 2026-05-07 18:31 | 50.38602 | 8.18040 | 36658 ft | 445 kts | 289° |
| 2026-05-07 18:31 | 50.39669 | 8.13484 | 36413 ft | 444 kts | 289° |
| 2026-05-07 18:31 | 50.40734 | 8.08921 | 36168 ft | 443 kts | 289° |
| 2026-05-07 18:32 | 50.41786 | 8.04411 | 36061 ft | 442 kts | 289° |
| 2026-05-07 18:32 | 50.43895 | 7.95332 | 36000 ft | 444 kts | 289° |
| 2026-05-07 18:32 | 50.44951 | 7.90770 | 35680 ft | 448 kts | 289° |
| 2026-05-07 18:33 | 50.45998 | 7.86238 | 35210 ft | 447 kts | 290° |
| 2026-05-07 18:33 | 50.47057 | 7.81645 | 34615 ft | 446 kts | 290° |
| 2026-05-07 18:33 | 50.48103 | 7.77102 | 33931 ft | 444 kts | 290° |
| 2026-05-07 18:33 | 50.49150 | 7.72540 | 33249 ft | 444 kts | 290° |
| 2026-05-07 18:34 | 50.50188 | 7.68011 | 32551 ft | 445 kts | 290° |
| 2026-05-07 18:34 | 50.51234 | 7.63436 | 31852 ft | 446 kts | 290° |
| 2026-05-07 18:34 | 50.52278 | 7.58860 | 31153 ft | 448 kts | 290° |
| 2026-05-07 18:34 | 50.53336 | 7.54209 | 30406 ft | 449 kts | 290° |
| 2026-05-07 18:35 | 50.54381 | 7.49608 | 29711 ft | 447 kts | 290° |
| 2026-05-07 18:35 | 50.55383 | 7.45071 | 29018 ft | 442 kts | 287° |
| 2026-05-07 18:35 | 50.55884 | 7.40372 | 28335 ft | 437 kts | 273° |
| 2026-05-07 18:35 | 50.55931 | 7.35589 | 27723 ft | 430 kts | 271° |
| 2026-05-07 18:36 | 50.55961 | 7.30955 | 27458 ft | 426 kts | 270° |
| 2026-05-07 18:36 | 50.55993 | 7.26281 | 27212 ft | 427 kts | 270° |
| 2026-05-07 18:36 | 50.56023 | 7.21584 | 27022 ft | 427 kts | 270° |
| 2026-05-07 18:36 | 50.56028 | 7.16972 | 27023 ft | 424 kts | 269° |
| 2026-05-07 18:37 | 50.55937 | 7.12334 | 27027 ft | 426 kts | 268° |
| 2026-05-07 18:37 | 50.55835 | 7.07653 | 26965 ft | 429 kts | 268° |
| 2026-05-07 18:37 | 50.55732 | 7.02968 | 26599 ft | 430 kts | 268° |
| 2026-05-07 18:37 | 50.55629 | 6.98293 | 26226 ft | 424 kts | 268° |
| 2026-05-07 18:38 | 50.55525 | 6.93727 | 25857 ft | 420 kts | 268° |
| 2026-05-07 18:38 | 50.55418 | 6.89186 | 25485 ft | 417 kts | 268° |
| 2026-05-07 18:38 | 50.55308 | 6.84599 | 25109 ft | 414 kts | 268° |
| 2026-05-07 18:38 | 50.55198 | 6.80100 | 24733 ft | 412 kts | 268° |
| 2026-05-07 18:39 | 50.55087 | 6.75613 | 24361 ft | 410 kts | 268° |
| 2026-05-07 18:39 | 50.54977 | 6.71144 | 23958 ft | 408 kts | 268° |
| 2026-05-07 18:39 | 50.55186 | 6.66749 | 23518 ft | 406 kts | 279° |
| 2026-05-07 18:39 | 50.55716 | 6.62442 | 23063 ft | 403 kts | 280° |
| 2026-05-07 18:40 | 50.56249 | 6.58087 | 22625 ft | 400 kts | 280° |
| 2026-05-07 18:40 | 50.56765 | 6.53836 | 22241 ft | 397 kts | 280° |
| 2026-05-07 18:40 | 50.57281 | 6.49567 | 22040 ft | 396 kts | 280° |
| 2026-05-07 18:40 | 50.57793 | 6.45326 | 22027 ft | 397 kts | 280° |
| 2026-05-07 18:41 | 50.58303 | 6.41084 | 22031 ft | 397 kts | 280° |
| 2026-05-07 18:41 | 50.58815 | 6.36811 | 21917 ft | 400 kts | 280° |
| 2026-05-07 18:41 | 50.59327 | 6.32505 | 21439 ft | 399 kts | 279° |
| 2026-05-07 18:41 | 50.59833 | 6.28242 | 20937 ft | 394 kts | 279° |
| 2026-05-07 18:42 | 50.60327 | 6.24079 | 20440 ft | 384 kts | 279° |
| 2026-05-07 18:42 | 50.61025 | 6.20073 | 19953 ft | 373 kts | 290° |
| 2026-05-07 18:42 | 50.61979 | 6.16369 | 19454 ft | 363 kts | 291° |
| 2026-05-07 18:42 | 50.62912 | 6.12737 | 18969 ft | 354 kts | 291° |
| 2026-05-07 18:43 | 50.63826 | 6.09167 | 18637 ft | 342 kts | 291° |
| 2026-05-07 18:43 | 50.64688 | 6.05794 | 18398 ft | 329 kts | 291° |
| 2026-05-07 18:43 | 50.65522 | 6.02521 | 18156 ft | 317 kts | 290° |
| 2026-05-07 18:43 | 50.66333 | 5.99330 | 18033 ft | 313 kts | 290° |
| 2026-05-07 18:44 | 50.67144 | 5.96133 | 18042 ft | 315 kts | 290° |
| 2026-05-07 18:44 | 50.67960 | 5.92909 | 18034 ft | 315 kts | 291° |
| 2026-05-07 18:44 | 50.68768 | 5.89707 | 18045 ft | 316 kts | 291° |
| 2026-05-07 18:44 | 50.69577 | 5.86497 | 18043 ft | 316 kts | 291° |
| 2026-05-07 18:45 | 50.70390 | 5.83266 | 17932 ft | 319 kts | 291° |
| 2026-05-07 18:45 | 50.71212 | 5.79995 | 17555 ft | 317 kts | 291° |
| 2026-05-07 18:45 | 50.72012 | 5.76808 | 17116 ft | 312 kts | 291° |
| 2026-05-07 18:45 | 50.72800 | 5.73661 | 16591 ft | 309 kts | 291° |
| 2026-05-07 18:46 | 50.73589 | 5.70510 | 16045 ft | 307 kts | 291° |
| 2026-05-07 18:46 | 50.74365 | 5.67400 | 15500 ft | 306 kts | 291° |
| 2026-05-07 18:46 | 50.75133 | 5.64320 | 14978 ft | 304 kts | 291° |
| 2026-05-07 18:46 | 50.75904 | 5.61223 | 14452 ft | 302 kts | 291° |
| 2026-05-07 18:47 | 50.76666 | 5.58157 | 13944 ft | 299 kts | 291° |
| 2026-05-07 18:47 | 50.77422 | 5.55109 | 13435 ft | 298 kts | 291° |
| 2026-05-07 18:47 | 50.78173 | 5.52081 | 12919 ft | 296 kts | 291° |
| 2026-05-07 18:47 | 50.78921 | 5.49054 | 12441 ft | 294 kts | 291° |
| 2026-05-07 18:48 | 50.79651 | 5.46101 | 11977 ft | 292 kts | 291° |
| 2026-05-07 18:48 | 50.80394 | 5.43091 | 11518 ft | 290 kts | 291° |
| 2026-05-07 18:48 | 50.81121 | 5.40137 | 11055 ft | 289 kts | 291° |
| 2026-05-07 18:48 | 50.81849 | 5.37179 | 10585 ft | 287 kts | 291° |
| 2026-05-07 18:49 | 50.82565 | 5.34266 | 10106 ft | 286 kts | 290° |
| 2026-05-07 18:49 | 50.83284 | 5.31337 | 9634 ft | 284 kts | 290° |
| 2026-05-07 18:49 | 50.84000 | 5.28434 | 9184 ft | 282 kts | 291° |
| 2026-05-07 18:49 | 50.84778 | 5.25627 | 8743 ft | 281 kts | 294° |
| 2026-05-07 18:50 | 50.85582 | 5.22809 | 8273 ft | 280 kts | 294° |
| 2026-05-07 18:50 | 50.86379 | 5.20006 | 7802 ft | 279 kts | 294° |
| 2026-05-07 18:50 | 50.87177 | 5.17195 | 7361 ft | 277 kts | 294° |
| 2026-05-07 18:50 | 50.87957 | 5.14441 | 7011 ft | 272 kts | 294° |
| 2026-05-07 18:51 | 50.88731 | 5.11709 | 6752 ft | 271 kts | 294° |
| 2026-05-07 18:51 | 50.89497 | 5.09001 | 6502 ft | 274 kts | 294° |
| 2026-05-07 18:51 | 50.90282 | 5.06218 | 6204 ft | 275 kts | 294° |
| 2026-05-07 18:51 | 50.91057 | 5.03472 | 5880 ft | 270 kts | 294° |
| 2026-05-07 18:52 | 50.91811 | 5.00795 | 5575 ft | 262 kts | 294° |
| 2026-05-07 18:52 | 50.92530 | 4.98238 | 5326 ft | 254 kts | 294° |
| 2026-05-07 18:52 | 50.93247 | 4.95691 | 5058 ft | 247 kts | 294° |
| 2026-05-07 18:52 | 50.93934 | 4.93242 | 4791 ft | 241 kts | 295° |
| 2026-05-07 18:53 | 50.94602 | 4.90861 | 4550 ft | 236 kts | 295° |
| 2026-05-07 18:53 | 50.95266 | 4.88491 | 4305 ft | 235 kts | 295° |
| 2026-05-07 18:53 | 50.95937 | 4.86095 | 4055 ft | 236 kts | 295° |
| 2026-05-07 18:53 | 50.96598 | 4.83733 | 3801 ft | 236 kts | 295° |
| 2026-05-07 18:54 | 50.97262 | 4.81357 | 3549 ft | 234 kts | 295° |
| 2026-05-07 18:54 | 50.97926 | 4.78978 | 3307 ft | 235 kts | 295° |
| 2026-05-07 18:54 | 50.98379 | 4.76529 | 3057 ft | 231 kts | 274° |
| 2026-05-07 18:54 | 50.98130 | 4.74084 | 2845 ft | 225 kts | 248° |
| 2026-05-07 18:55 | 50.97497 | 4.71847 | 2720 ft | 215 kts | 245° |
| 2026-05-07 18:55 | 50.96889 | 4.69779 | 2633 ft | 199 kts | 245° |
| 2026-05-07 18:55 | 50.96320 | 4.67816 | 2498 ft | 197 kts | 245° |
| 2026-05-07 18:55 | 50.95741 | 4.65860 | 2233 ft | 196 kts | 245° |
| 2026-05-07 18:56 | 50.95171 | 4.63906 | 2017 ft | 195 kts | 245° |
| 2026-05-07 18:56 | 50.94621 | 4.61992 | 1751 ft | 183 kts | 246° |
| 2026-05-07 18:56 | 50.94114 | 4.60224 | 1540 ft | 172 kts | 246° |
| 2026-05-07 18:56 | 50.93626 | 4.58525 | 1306 ft | 164 kts | 246° |
| 2026-05-07 18:57 | 50.93183 | 4.56985 | 1136 ft | 141 kts | 246° |
| 2026-05-07 18:57 | 50.92825 | 4.55737 | 949 ft | 138 kts | 246° |
| 2026-05-07 18:57 | 50.92435 | 4.54376 | 736 ft | 134 kts | 246° |
| 2026-05-07 18:57 | 50.92050 | 4.53036 | 560 ft | 133 kts | 246° |
| 2026-05-07 18:58 | 50.91665 | 4.51699 | 389 ft | 131 kts | 246° |
| 2026-05-07 18:58 | 50.91289 | 4.50396 | 215 ft | 130 kts | 246° |
| 2026-05-07 18:58 | 50.90916 | 4.49134 | 124 ft | 114 kts | 247° |
| 2026-05-07 18:58 | 50.90659 | 4.48221 | 125 ft | 65 kts | 246° |
| 2026-05-07 18:59 | 50.90513 | 4.47775 | 126 ft | 34 kts | 230° |
| 2026-05-07 18:59 | 50.90368 | 4.47579 | 128 ft | 10 kts | 216° |
| 2026-05-07 18:59 | 50.90347 | 4.47555 | 128 ft | 0 kts | 216° |
| 2026-05-07 18:59 | 50.90326 | 4.47532 | 128 ft | 9 kts | 215° |
| 2026-05-07 19:00 | 50.90252 | 4.47450 | 129 ft | 13 kts | 213° |
| 2026-05-07 19:00 | 50.90162 | 4.47477 | 130 ft | 15 kts | 155° |
| 2026-05-07 19:00 | 50.90055 | 4.47554 | 132 ft | 18 kts | 156° |
| 2026-05-07 19:00 | 50.89966 | 4.47596 | 134 ft | 10 kts | 205° |
| 2026-05-07 19:01 | 50.89923 | 4.47482 | 134 ft | 14 kts | 245° |
| 2026-05-07 19:01 | 50.89875 | 4.47316 | 134 ft | 17 kts | 247° |
| 2026-05-07 19:01 | 50.89828 | 4.47270 | 134 ft | 9 kts | 155° |
| 2026-05-07 19:01 | 50.89788 | 4.47281 | 135 ft | 4 kts | 247° |
| 2026-05-07 19:02 | 50.89771 | 4.47211 | 134 ft | 9 kts | 244° |
| 2026-05-07 19:02 | 50.89737 | 4.47185 | 135 ft | 5 kts | 153° |
| 2026-05-07 19:02 | 50.89727 | 4.47193 | 135 ft | 0 kts | 154° |